sensor_id;sensor_type;location;lat;lon;timestamp;P1;durP1;ratioP1;P2;durP2;ratioP2
49123;SDS011;48506;48.202;16.274;2022-07-29T10:52:55;4.50;;;4.07;;
49123;SDS011;48506;48.202;16.274;2022-07-29T10:55:30;6.93;;;4.68;;
49123;SDS011;48506;48.202;16.274;2022-07-29T10:58:11;5.18;;;4.07;;
49123;SDS011;48506;48.202;16.274;2022-07-29T11:00:46;5.05;;;4.22;;
49123;SDS011;48506;48.202;16.274;2022-07-29T11:06:11;6.35;;;4.50;;
49123;SDS011;48506;48.202;16.274;2022-07-29T11:08:38;6.88;;;4.05;;
49123;SDS011;48506;48.202;16.274;2022-07-29T11:16:20;4.68;;;3.97;;
49123;SDS011;48506;48.202;16.274;2022-07-29T11:21:39;4.38;;;3.97;;
49123;SDS011;48506;48.202;16.274;2022-07-29T11:27:05;5.25;;;4.40;;
49123;SDS011;48506;48.202;16.274;2022-07-29T11:29:32;4.80;;;4.28;;
49123;SDS011;48506;48.202;16.274;2022-07-29T11:32:12;6.63;;;4.53;;
49123;SDS011;48506;48.202;16.274;2022-07-29T11:34:40;6.30;;;4.90;;
49123;SDS011;48506;48.202;16.274;2022-07-29T11:39:33;8.38;;;4.18;;
49123;SDS011;48506;48.202;16.274;2022-07-29T11:45:03;6.15;;;4.40;;
49123;SDS011;48506;48.202;16.274;2022-07-29T11:50:11;7.55;;;4.40;;
49123;SDS011;48506;48.202;16.274;2022-07-29T11:52:45;5.25;;;4.72;;
49123;SDS011;48506;48.202;16.274;2022-07-29T11:55:14;6.88;;;4.25;;
49123;SDS011;48506;48.202;16.274;2022-07-29T11:57:47;4.40;;;4.00;;
49123;SDS011;48506;48.202;16.274;2022-07-29T12:00:21;9.48;;;4.75;;
49123;SDS011;48506;48.202;16.274;2022-07-29T12:02:47;7.47;;;5.10;;
49123;SDS011;48506;48.202;16.274;2022-07-29T12:05:13;5.38;;;4.85;;
49123;SDS011;48506;48.202;16.274;2022-07-29T12:07:39;5.07;;;4.63;;
49123;SDS011;48506;48.202;16.274;2022-07-29T12:10:07;5.60;;;5.10;;
49123;SDS011;48506;48.202;16.274;2022-07-29T12:12:34;5.95;;;4.25;;
49123;SDS011;48506;48.202;16.274;2022-07-29T12:15:10;4.95;;;4.32;;
49123;SDS011;48506;48.202;16.274;2022-07-29T12:17:45;5.38;;;4.57;;
49123;SDS011;48506;48.202;16.274;2022-07-29T12:20:13;4.70;;;4.15;;
49123;SDS011;48506;48.202;16.274;2022-07-29T12:22:53;6.05;;;4.53;;
49123;SDS011;48506;48.202;16.274;2022-07-29T12:25:21;6.03;;;4.75;;
49123;SDS011;48506;48.202;16.274;2022-07-29T12:28:01;7.70;;;5.25;;
49123;SDS011;48506;48.202;16.274;2022-07-29T12:35:49;4.80;;;4.40;;
49123;SDS011;48506;48.202;16.274;2022-07-29T12:38:18;5.95;;;4.57;;
49123;SDS011;48506;48.202;16.274;2022-07-29T12:40:46;6.47;;;4.05;;
49123;SDS011;48506;48.202;16.274;2022-07-29T12:43:17;6.78;;;4.80;;
49123;SDS011;48506;48.202;16.274;2022-07-29T12:45:48;5.32;;;4.82;;
49123;SDS011;48506;48.202;16.274;2022-07-29T12:48:16;5.40;;;4.65;;
49123;SDS011;48506;48.202;16.274;2022-07-29T12:50:53;5.45;;;4.63;;
49123;SDS011;48506;48.202;16.274;2022-07-29T12:53:19;4.78;;;4.32;;
49123;SDS011;48506;48.202;16.274;2022-07-29T12:55:46;6.15;;;4.60;;
49123;SDS011;48506;48.202;16.274;2022-07-29T12:58:29;4.88;;;4.45;;
49123;SDS011;48506;48.202;16.274;2022-07-29T13:11:43;4.78;;;4.38;;
49123;SDS011;48506;48.202;16.274;2022-07-29T13:14:11;4.85;;;3.80;;
49123;SDS011;48506;48.202;16.274;2022-07-29T13:17:01;7.68;;;4.53;;
49123;SDS011;48506;48.202;16.274;2022-07-29T13:19:35;19.30;;;12.23;;
49123;SDS011;48506;48.202;16.274;2022-07-29T13:22:02;4.90;;;4.50;;
49123;SDS011;48506;48.202;16.274;2022-07-29T13:24:29;17.70;;;6.78;;
49123;SDS011;48506;48.202;16.274;2022-07-29T13:26:56;5.50;;;4.68;;
49123;SDS011;48506;48.202;16.274;2022-07-29T13:29:22;8.43;;;4.88;;
49123;SDS011;48506;48.202;16.274;2022-07-29T13:31:48;7.38;;;5.00;;
49123;SDS011;48506;48.202;16.274;2022-07-29T13:34:15;7.78;;;4.80;;
49123;SDS011;48506;48.202;16.274;2022-07-29T13:36:41;9.93;;;4.95;;
49123;SDS011;48506;48.202;16.274;2022-07-29T13:39:08;5.93;;;4.70;;
49123;SDS011;48506;48.202;16.274;2022-07-29T13:41:36;8.07;;;5.18;;
49123;SDS011;48506;48.202;16.274;2022-07-29T13:44:02;9.52;;;5.18;;
49123;SDS011;48506;48.202;16.274;2022-07-29T13:46:28;6.85;;;5.50;;
49123;SDS011;48506;48.202;16.274;2022-07-29T13:48:55;7.43;;;5.85;;
49123;SDS011;48506;48.202;16.274;2022-07-29T13:51:20;8.70;;;5.95;;
49123;SDS011;48506;48.202;16.274;2022-07-29T13:53:48;8.23;;;6.53;;
49123;SDS011;48506;48.202;16.274;2022-07-29T13:56:14;7.15;;;5.93;;
49123;SDS011;48506;48.202;16.274;2022-07-29T13:58:40;7.85;;;7.05;;
49123;SDS011;48506;48.202;16.274;2022-07-29T14:01:07;8.13;;;6.88;;
49123;SDS011;48506;48.202;16.274;2022-07-29T14:03:34;11.32;;;6.75;;
49123;SDS011;48506;48.202;16.274;2022-07-29T14:06:02;11.57;;;8.57;;
49123;SDS011;48506;48.202;16.274;2022-07-29T14:08:28;8.40;;;7.55;;
49123;SDS011;48506;48.202;16.274;2022-07-29T14:10:55;10.93;;;9.02;;
49123;SDS011;48506;48.202;16.274;2022-07-29T14:13:21;11.77;;;8.18;;
49123;SDS011;48506;48.202;16.274;2022-07-29T14:15:47;12.30;;;8.57;;
49123;SDS011;48506;48.202;16.274;2022-07-29T14:18:14;11.35;;;9.23;;
49123;SDS011;48506;48.202;16.274;2022-07-29T14:20:39;10.93;;;9.82;;
49123;SDS011;48506;48.202;16.274;2022-07-29T14:23:05;12.68;;;10.90;;
49123;SDS011;48506;48.202;16.274;2022-07-29T14:25:32;11.20;;;9.68;;
49123;SDS011;48506;48.202;16.274;2022-07-29T14:27:59;13.68;;;11.20;;
49123;SDS011;48506;48.202;16.274;2022-07-29T14:30:24;15.23;;;12.55;;
49123;SDS011;48506;48.202;16.274;2022-07-29T14:32:51;13.25;;;12.02;;
49123;SDS011;48506;48.202;16.274;2022-07-29T14:35:17;16.33;;;12.95;;
49123;SDS011;48506;48.202;16.274;2022-07-29T14:37:43;15.05;;;12.30;;
49123;SDS011;48506;48.202;16.274;2022-07-29T14:40:09;14.25;;;11.10;;
49123;SDS011;48506;48.202;16.274;2022-07-29T14:42:35;11.13;;;9.82;;
49123;SDS011;48506;48.202;16.274;2022-07-29T14:45:04;13.80;;;12.23;;
49123;SDS011;48506;48.202;16.274;2022-07-29T14:47:30;13.95;;;10.45;;
49123;SDS011;48506;48.202;16.274;2022-07-29T14:49:56;14.10;;;12.15;;
49123;SDS011;48506;48.202;16.274;2022-07-29T14:52:22;12.45;;;11.15;;
49123;SDS011;48506;48.202;16.274;2022-07-29T14:54:48;12.02;;;10.30;;
49123;SDS011;48506;48.202;16.274;2022-07-29T14:57:14;10.75;;;9.52;;
49123;SDS011;48506;48.202;16.274;2022-07-29T14:59:41;12.98;;;11.75;;
49123;SDS011;48506;48.202;16.274;2022-07-29T15:02:07;10.63;;;9.63;;
49123;SDS011;48506;48.202;16.274;2022-07-29T15:04:34;10.93;;;8.75;;
49123;SDS011;48506;48.202;16.274;2022-07-29T15:07:02;12.25;;;10.95;;
49123;SDS011;48506;48.202;16.274;2022-07-29T15:09:32;11.38;;;10.27;;
49123;SDS011;48506;48.202;16.274;2022-07-29T15:11:58;11.35;;;10.27;;
49123;SDS011;48506;48.202;16.274;2022-07-29T15:14:24;12.27;;;11.07;;
49123;SDS011;48506;48.202;16.274;2022-07-29T15:16:51;11.20;;;10.18;;
49123;SDS011;48506;48.202;16.274;2022-07-29T15:19:17;13.98;;;12.68;;
49123;SDS011;48506;48.202;16.274;2022-07-29T15:21:44;14.55;;;13.15;;
49123;SDS011;48506;48.202;16.274;2022-07-29T15:24:10;11.93;;;10.73;;
49123;SDS011;48506;48.202;16.274;2022-07-29T15:26:36;10.18;;;9.18;;
49123;SDS011;48506;48.202;16.274;2022-07-29T15:29:02;12.93;;;10.52;;
49123;SDS011;48506;48.202;16.274;2022-07-29T15:31:28;12.18;;;10.90;;
49123;SDS011;48506;48.202;16.274;2022-07-29T15:33:55;13.50;;;11.95;;
49123;SDS011;48506;48.202;16.274;2022-07-29T15:36:21;15.07;;;12.93;;
49123;SDS011;48506;48.202;16.274;2022-07-29T15:38:47;13.65;;;12.43;;
49123;SDS011;48506;48.202;16.274;2022-07-29T15:41:16;14.77;;;12.18;;
49123;SDS011;48506;48.202;16.274;2022-07-29T15:43:45;16.90;;;11.45;;
49123;SDS011;48506;48.202;16.274;2022-07-29T15:46:15;12.80;;;11.57;;
49123;SDS011;48506;48.202;16.274;2022-07-29T15:49:03;13.18;;;11.68;;
49123;SDS011;48506;48.202;16.274;2022-07-29T15:51:31;16.38;;;13.15;;
49123;SDS011;48506;48.202;16.274;2022-07-29T15:53:58;13.43;;;12.05;;
49123;SDS011;48506;48.202;16.274;2022-07-29T15:56:28;14.38;;;11.07;;
49123;SDS011;48506;48.202;16.274;2022-07-29T15:58:55;13.50;;;11.88;;
49123;SDS011;48506;48.202;16.274;2022-07-29T16:01:21;14.60;;;11.90;;
49123;SDS011;48506;48.202;16.274;2022-07-29T16:03:48;14.27;;;12.45;;
49123;SDS011;48506;48.202;16.274;2022-07-29T16:06:15;13.48;;;12.23;;
49123;SDS011;48506;48.202;16.274;2022-07-29T16:08:42;9.80;;;8.70;;
49123;SDS011;48506;48.202;16.274;2022-07-29T16:11:09;11.52;;;10.32;;
49123;SDS011;48506;48.202;16.274;2022-07-29T16:13:36;14.93;;;12.70;;
49123;SDS011;48506;48.202;16.274;2022-07-29T16:16:03;12.20;;;11.05;;
49123;SDS011;48506;48.202;16.274;2022-07-29T16:18:29;12.90;;;11.52;;
49123;SDS011;48506;48.202;16.274;2022-07-29T16:20:57;14.13;;;11.55;;
49123;SDS011;48506;48.202;16.274;2022-07-29T16:23:24;14.77;;;13.23;;
49123;SDS011;48506;48.202;16.274;2022-07-29T16:25:50;16.50;;;13.48;;
49123;SDS011;48506;48.202;16.274;2022-07-29T16:28:17;13.75;;;12.20;;
49123;SDS011;48506;48.202;16.274;2022-07-29T16:30:44;13.98;;;11.85;;
49123;SDS011;48506;48.202;16.274;2022-07-29T16:33:10;12.95;;;9.50;;
49123;SDS011;48506;48.202;16.274;2022-07-29T16:35:37;15.05;;;11.52;;
49123;SDS011;48506;48.202;16.274;2022-07-29T16:38:05;12.20;;;11.07;;
49123;SDS011;48506;48.202;16.274;2022-07-29T16:40:32;12.82;;;9.68;;
49123;SDS011;48506;48.202;16.274;2022-07-29T16:43:00;11.43;;;9.80;;
49123;SDS011;48506;48.202;16.274;2022-07-29T16:45:26;12.32;;;9.60;;
49123;SDS011;48506;48.202;16.274;2022-07-29T16:47:54;10.00;;;9.00;;
49123;SDS011;48506;48.202;16.274;2022-07-29T16:50:22;12.02;;;9.50;;
49123;SDS011;48506;48.202;16.274;2022-07-29T16:52:49;9.88;;;8.98;;
49123;SDS011;48506;48.202;16.274;2022-07-29T16:55:16;10.32;;;8.88;;
49123;SDS011;48506;48.202;16.274;2022-07-29T16:57:43;9.77;;;8.73;;
49123;SDS011;48506;48.202;16.274;2022-07-29T17:00:11;13.03;;;9.80;;
49123;SDS011;48506;48.202;16.274;2022-07-29T17:02:38;11.45;;;10.10;;
49123;SDS011;48506;48.202;16.274;2022-07-29T17:05:06;10.43;;;9.32;;
49123;SDS011;48506;48.202;16.274;2022-07-29T17:07:33;10.93;;;9.93;;
49123;SDS011;48506;48.202;16.274;2022-07-29T17:09:59;11.52;;;10.32;;
49123;SDS011;48506;48.202;16.274;2022-07-29T17:17:25;9.35;;;8.40;;
49123;SDS011;48506;48.202;16.274;2022-07-29T17:19:51;11.80;;;9.57;;
49123;SDS011;48506;48.202;16.274;2022-07-29T17:22:17;10.10;;;9.20;;
49123;SDS011;48506;48.202;16.274;2022-07-29T17:24:44;10.65;;;9.60;;
49123;SDS011;48506;48.202;16.274;2022-07-29T17:27:11;10.63;;;9.23;;
49123;SDS011;48506;48.202;16.274;2022-07-29T17:29:38;10.55;;;9.48;;
49123;SDS011;48506;48.202;16.274;2022-07-29T17:32:06;10.95;;;9.27;;
49123;SDS011;48506;48.202;16.274;2022-07-29T17:34:35;9.98;;;8.98;;
49123;SDS011;48506;48.202;16.274;2022-07-29T17:37:02;12.90;;;11.60;;
49123;SDS011;48506;48.202;16.274;2022-07-29T17:39:29;11.07;;;9.95;;
49123;SDS011;48506;48.202;16.274;2022-07-29T17:41:55;10.30;;;9.30;;
49123;SDS011;48506;48.202;16.274;2022-07-29T17:44:22;13.57;;;9.80;;
49123;SDS011;48506;48.202;16.274;2022-07-29T17:46:48;11.40;;;10.27;;
49123;SDS011;48506;48.202;16.274;2022-07-29T17:49:14;11.68;;;10.55;;
49123;SDS011;48506;48.202;16.274;2022-07-29T17:51:41;12.18;;;10.75;;
49123;SDS011;48506;48.202;16.274;2022-07-29T17:54:07;12.38;;;11.18;;
49123;SDS011;48506;48.202;16.274;2022-07-29T17:56:34;11.35;;;9.93;;
49123;SDS011;48506;48.202;16.274;2022-07-29T17:59:00;12.38;;;10.88;;
49123;SDS011;48506;48.202;16.274;2022-07-29T18:01:31;16.83;;;11.20;;
49123;SDS011;48506;48.202;16.274;2022-07-29T18:03:58;14.07;;;12.70;;
49123;SDS011;48506;48.202;16.274;2022-07-29T18:06:24;13.95;;;12.55;;
49123;SDS011;48506;48.202;16.274;2022-07-29T18:08:50;13.65;;;12.40;;
49123;SDS011;48506;48.202;16.274;2022-07-29T18:11:16;11.80;;;10.77;;
49123;SDS011;48506;48.202;16.274;2022-07-29T18:13:44;12.60;;;11.45;;
49123;SDS011;48506;48.202;16.274;2022-07-29T18:16:11;11.82;;;10.82;;
49123;SDS011;48506;48.202;16.274;2022-07-29T18:18:37;13.40;;;12.18;;
49123;SDS011;48506;48.202;16.274;2022-07-29T18:21:04;14.48;;;12.98;;
49123;SDS011;48506;48.202;16.274;2022-07-29T18:23:31;14.35;;;13.02;;
49123;SDS011;48506;48.202;16.274;2022-07-29T18:25:58;14.18;;;12.75;;
49123;SDS011;48506;48.202;16.274;2022-07-29T18:28:24;14.13;;;12.80;;
49123;SDS011;48506;48.202;16.274;2022-07-29T18:30:50;14.13;;;12.82;;
49123;SDS011;48506;48.202;16.274;2022-07-29T18:33:16;15.57;;;14.07;;
49123;SDS011;48506;48.202;16.274;2022-07-29T18:35:45;13.90;;;12.40;;
49123;SDS011;48506;48.202;16.274;2022-07-29T18:38:12;15.45;;;14.05;;
49123;SDS011;48506;48.202;16.274;2022-07-29T18:40:39;16.85;;;15.20;;
49123;SDS011;48506;48.202;16.274;2022-07-29T18:43:10;13.98;;;12.57;;
49123;SDS011;48506;48.202;16.274;2022-07-29T18:45:37;15.73;;;14.10;;
49123;SDS011;48506;48.202;16.274;2022-07-29T18:48:03;14.73;;;13.43;;
49123;SDS011;48506;48.202;16.274;2022-07-29T18:50:32;16.50;;;13.90;;
49123;SDS011;48506;48.202;16.274;2022-07-29T18:53:01;16.13;;;14.68;;
49123;SDS011;48506;48.202;16.274;2022-07-29T18:55:28;15.98;;;14.43;;
49123;SDS011;48506;48.202;16.274;2022-07-29T18:57:54;12.93;;;11.63;;
49123;SDS011;48506;48.202;16.274;2022-07-29T19:00:20;13.55;;;12.25;;
49123;SDS011;48506;48.202;16.274;2022-07-29T19:02:47;18.13;;;14.48;;
49123;SDS011;48506;48.202;16.274;2022-07-29T19:05:14;14.35;;;12.98;;
49123;SDS011;48506;48.202;16.274;2022-07-29T19:07:39;14.18;;;12.73;;
49123;SDS011;48506;48.202;16.274;2022-07-29T19:10:06;15.75;;;14.13;;
49123;SDS011;48506;48.202;16.274;2022-07-29T19:12:33;25.70;;;19.50;;
49123;SDS011;48506;48.202;16.274;2022-07-29T19:15:00;32.05;;;21.83;;
49123;SDS011;48506;48.202;16.274;2022-07-29T19:17:27;21.80;;;18.00;;
49123;SDS011;48506;48.202;16.274;2022-07-29T19:19:53;18.45;;;16.20;;
49123;SDS011;48506;48.202;16.274;2022-07-29T19:22:20;21.55;;;15.80;;
49123;SDS011;48506;48.202;16.274;2022-07-29T19:24:47;17.77;;;16.17;;
49123;SDS011;48506;48.202;16.274;2022-07-29T19:27:14;24.10;;;18.73;;
49123;SDS011;48506;48.202;16.274;2022-07-29T19:29:42;20.30;;;17.13;;
49123;SDS011;48506;48.202;16.274;2022-07-29T19:32:08;20.45;;;17.13;;
49123;SDS011;48506;48.202;16.274;2022-07-29T19:34:33;21.10;;;18.50;;
49123;SDS011;48506;48.202;16.274;2022-07-29T19:36:59;20.05;;;17.08;;
49123;SDS011;48506;48.202;16.274;2022-07-29T19:39:25;27.23;;;21.70;;
49123;SDS011;48506;48.202;16.274;2022-07-29T19:41:51;28.85;;;22.63;;
49123;SDS011;48506;48.202;16.274;2022-07-29T19:44:18;22.15;;;15.77;;
49123;SDS011;48506;48.202;16.274;2022-07-29T19:46:45;21.45;;;19.27;;
49123;SDS011;48506;48.202;16.274;2022-07-29T19:49:11;19.90;;;18.00;;
49123;SDS011;48506;48.202;16.274;2022-07-29T19:51:38;19.83;;;17.73;;
49123;SDS011;48506;48.202;16.274;2022-07-29T19:54:06;22.83;;;19.00;;
49123;SDS011;48506;48.202;16.274;2022-07-29T19:56:33;21.25;;;17.08;;
49123;SDS011;48506;48.202;16.274;2022-07-29T19:58:59;21.75;;;19.13;;
49123;SDS011;48506;48.202;16.274;2022-07-29T20:01:25;22.42;;;17.05;;
49123;SDS011;48506;48.202;16.274;2022-07-29T20:03:52;20.55;;;18.20;;
49123;SDS011;48506;48.202;16.274;2022-07-29T20:06:18;25.60;;;18.58;;
49123;SDS011;48506;48.202;16.274;2022-07-29T20:08:44;28.33;;;21.52;;
49123;SDS011;48506;48.202;16.274;2022-07-29T20:11:11;33.92;;;21.35;;
49123;SDS011;48506;48.202;16.274;2022-07-29T20:13:36;46.40;;;28.98;;
49123;SDS011;48506;48.202;16.274;2022-07-29T20:16:03;23.52;;;19.42;;
49123;SDS011;48506;48.202;16.274;2022-07-29T20:18:32;29.55;;;22.05;;
49123;SDS011;48506;48.202;16.274;2022-07-29T20:20:58;31.00;;;23.13;;
49123;SDS011;48506;48.202;16.274;2022-07-29T20:23:25;31.77;;;22.92;;
49123;SDS011;48506;48.202;16.274;2022-07-29T20:25:52;25.35;;;19.67;;
49123;SDS011;48506;48.202;16.274;2022-07-29T20:28:19;19.50;;;17.52;;
49123;SDS011;48506;48.202;16.274;2022-07-29T20:30:45;19.60;;;17.60;;
49123;SDS011;48506;48.202;16.274;2022-07-29T20:33:10;41.40;;;28.10;;
49123;SDS011;48506;48.202;16.274;2022-07-29T20:35:37;20.98;;;17.50;;
49123;SDS011;48506;48.202;16.274;2022-07-29T20:38:05;23.23;;;20.00;;
49123;SDS011;48506;48.202;16.274;2022-07-29T20:40:31;22.50;;;20.10;;
49123;SDS011;48506;48.202;16.274;2022-07-29T20:42:57;23.40;;;21.05;;
49123;SDS011;48506;48.202;16.274;2022-07-29T20:45:23;18.40;;;16.45;;
49123;SDS011;48506;48.202;16.274;2022-07-29T20:47:50;19.52;;;15.65;;
49123;SDS011;48506;48.202;16.274;2022-07-29T20:50:16;20.20;;;16.92;;
49123;SDS011;48506;48.202;16.274;2022-07-29T20:52:43;22.08;;;17.42;;
49123;SDS011;48506;48.202;16.274;2022-07-29T20:55:10;22.08;;;16.83;;
49123;SDS011;48506;48.202;16.274;2022-07-29T20:57:36;28.92;;;22.27;;
49123;SDS011;48506;48.202;16.274;2022-07-29T21:00:03;24.65;;;21.38;;
49123;SDS011;48506;48.202;16.274;2022-07-29T21:02:31;31.70;;;23.17;;
49123;SDS011;48506;48.202;16.274;2022-07-29T21:04:57;30.30;;;22.40;;
49123;SDS011;48506;48.202;16.274;2022-07-29T21:07:24;25.95;;;21.45;;
49123;SDS011;48506;48.202;16.274;2022-07-29T21:09:50;34.50;;;24.45;;
49123;SDS011;48506;48.202;16.274;2022-07-29T21:12:16;26.13;;;20.75;;
49123;SDS011;48506;48.202;16.274;2022-07-29T21:14:41;27.85;;;22.77;;
49123;SDS011;48506;48.202;16.274;2022-07-29T21:17:12;27.98;;;22.42;;
49123;SDS011;48506;48.202;16.274;2022-07-29T21:19:39;21.30;;;19.05;;
49123;SDS011;48506;48.202;16.274;2022-07-29T21:22:05;32.33;;;24.40;;
49123;SDS011;48506;48.202;16.274;2022-07-29T21:24:31;24.88;;;21.50;;
49123;SDS011;48506;48.202;16.274;2022-07-29T21:26:57;53.00;;;27.52;;
49123;SDS011;48506;48.202;16.274;2022-07-29T21:29:42;53.72;;;26.92;;
49123;SDS011;48506;48.202;16.274;2022-07-29T21:32:07;54.00;;;32.35;;
49123;SDS011;48506;48.202;16.274;2022-07-29T21:34:33;36.38;;;24.80;;
49123;SDS011;48506;48.202;16.274;2022-07-29T21:36:59;26.38;;;20.58;;
49123;SDS011;48506;48.202;16.274;2022-07-29T21:39:25;37.20;;;25.10;;
49123;SDS011;48506;48.202;16.274;2022-07-29T21:41:52;45.45;;;22.98;;
49123;SDS011;48506;48.202;16.274;2022-07-29T21:44:17;70.40;;;25.02;;
49123;SDS011;48506;48.202;16.274;2022-07-29T21:46:45;43.97;;;25.83;;
49123;SDS011;48506;48.202;16.274;2022-07-29T21:49:11;27.08;;;21.98;;
49123;SDS011;48506;48.202;16.274;2022-07-29T21:51:37;26.02;;;22.25;;
49123;SDS011;48506;48.202;16.274;2022-07-29T21:54:03;22.45;;;20.13;;
49123;SDS011;48506;48.202;16.274;2022-07-29T21:56:29;28.75;;;22.05;;
49123;SDS011;48506;48.202;16.274;2022-07-29T21:58:55;18.83;;;16.83;;
49123;SDS011;48506;48.202;16.274;2022-07-29T22:01:21;28.00;;;23.48;;
49123;SDS011;48506;48.202;16.274;2022-07-29T22:03:48;22.98;;;20.58;;
49123;SDS011;48506;48.202;16.274;2022-07-29T22:06:14;24.38;;;20.15;;
49123;SDS011;48506;48.202;16.274;2022-07-29T22:08:39;24.90;;;19.23;;
49123;SDS011;48506;48.202;16.274;2022-07-29T22:11:09;23.30;;;19.60;;
49123;SDS011;48506;48.202;16.274;2022-07-29T22:13:36;23.98;;;19.15;;
49123;SDS011;48506;48.202;16.274;2022-07-29T22:16:02;20.60;;;18.00;;
49123;SDS011;48506;48.202;16.274;2022-07-29T22:18:28;18.25;;;16.55;;
49123;SDS011;48506;48.202;16.274;2022-07-29T22:20:54;22.60;;;20.17;;
49123;SDS011;48506;48.202;16.274;2022-07-29T22:23:20;26.85;;;20.98;;
49123;SDS011;48506;48.202;16.274;2022-07-29T22:25:45;22.70;;;19.45;;
49123;SDS011;48506;48.202;16.274;2022-07-29T22:28:11;26.73;;;20.67;;
49123;SDS011;48506;48.202;16.274;2022-07-29T22:30:37;22.23;;;19.85;;
49123;SDS011;48506;48.202;16.274;2022-07-29T22:33:03;18.88;;;16.85;;
49123;SDS011;48506;48.202;16.274;2022-07-29T22:35:29;20.73;;;18.63;;
49123;SDS011;48506;48.202;16.274;2022-07-29T22:37:55;18.90;;;17.02;;
49123;SDS011;48506;48.202;16.274;2022-07-29T22:40:21;18.08;;;16.17;;
49123;SDS011;48506;48.202;16.274;2022-07-29T22:42:47;22.80;;;18.85;;
49123;SDS011;48506;48.202;16.274;2022-07-29T22:45:13;20.75;;;18.35;;
49123;SDS011;48506;48.202;16.274;2022-07-29T22:47:39;24.63;;;21.48;;
49123;SDS011;48506;48.202;16.274;2022-07-29T22:50:05;19.08;;;16.75;;
49123;SDS011;48506;48.202;16.274;2022-07-29T22:52:31;22.17;;;17.65;;
49123;SDS011;48506;48.202;16.274;2022-07-29T22:54:57;18.70;;;16.70;;
49123;SDS011;48506;48.202;16.274;2022-07-29T22:57:23;19.08;;;16.60;;
49123;SDS011;48506;48.202;16.274;2022-07-29T22:59:50;16.33;;;14.63;;
49123;SDS011;48506;48.202;16.274;2022-07-29T23:02:16;20.00;;;18.10;;
49123;SDS011;48506;48.202;16.274;2022-07-29T23:04:41;18.70;;;16.70;;
49123;SDS011;48506;48.202;16.274;2022-07-29T23:07:07;22.60;;;19.15;;
49123;SDS011;48506;48.202;16.274;2022-07-29T23:09:33;21.10;;;17.90;;
49123;SDS011;48506;48.202;16.274;2022-07-29T23:11:59;18.42;;;16.50;;
49123;SDS011;48506;48.202;16.274;2022-07-29T23:14:25;22.98;;;18.95;;
49123;SDS011;48506;48.202;16.274;2022-07-29T23:16:51;20.90;;;18.80;;
49123;SDS011;48506;48.202;16.274;2022-07-29T23:19:17;25.38;;;19.30;;
49123;SDS011;48506;48.202;16.274;2022-07-29T23:21:43;21.13;;;18.80;;
49123;SDS011;48506;48.202;16.274;2022-07-29T23:24:09;21.27;;;19.02;;
49123;SDS011;48506;48.202;16.274;2022-07-29T23:26:35;18.85;;;16.45;;
49123;SDS011;48506;48.202;16.274;2022-07-29T23:29:01;19.88;;;17.73;;
49123;SDS011;48506;48.202;16.274;2022-07-29T23:31:28;17.20;;;15.45;;
49123;SDS011;48506;48.202;16.274;2022-07-29T23:33:53;19.45;;;17.33;;
49123;SDS011;48506;48.202;16.274;2022-07-29T23:36:19;18.02;;;15.13;;
49123;SDS011;48506;48.202;16.274;2022-07-29T23:38:46;16.17;;;14.23;;
49123;SDS011;48506;48.202;16.274;2022-07-29T23:41:12;17.00;;;15.35;;
49123;SDS011;48506;48.202;16.274;2022-07-29T23:43:39;13.70;;;12.48;;
49123;SDS011;48506;48.202;16.274;2022-07-29T23:46:05;12.85;;;11.48;;
49123;SDS011;48506;48.202;16.274;2022-07-29T23:48:31;13.32;;;11.70;;
49123;SDS011;48506;48.202;16.274;2022-07-29T23:50:57;11.80;;;10.57;;
49123;SDS011;48506;48.202;16.274;2022-07-29T23:53:25;10.38;;;9.48;;
49123;SDS011;48506;48.202;16.274;2022-07-29T23:55:52;11.82;;;10.60;;
49123;SDS011;48506;48.202;16.274;2022-07-29T23:58:18;10.93;;;9.68;;
